createdAt,value
2019-02-09T00:02:29.515Z,99610.59
2019-02-09T00:08:35.432Z,99617.56
2019-02-09T00:14:41.190Z,99629.84
2019-02-09T00:20:47.191Z,99629.45
2019-02-09T00:26:52.960Z,99627.38
2019-02-09T00:32:58.802Z,99600.31
2019-02-09T00:39:05.518Z,99586.44
2019-02-09T00:45:12.248Z,99555.76
2019-02-09T00:51:18.212Z,99556.62
2019-02-09T00:57:24.700Z,99555.77
2019-02-09T01:03:30.411Z,99550.98
2019-02-09T01:09:36.428Z,99561.96
2019-02-09T01:15:42.268Z,99544.02
2019-02-09T01:21:48.208Z,99526.10
2019-02-09T01:27:54.196Z,99514.27
2019-02-09T01:33:59.952Z,99525.70
2019-02-09T01:40:07.847Z,99529.27
2019-02-09T01:46:13.795Z,99543.34
2019-02-09T01:52:19.653Z,99530.66
2019-02-09T01:58:25.589Z,99533.30
2019-02-09T02:04:31.399Z,99535.60
2019-02-09T02:10:38.969Z,99534.23
2019-02-09T02:16:44.796Z,99532.04
2019-02-09T02:22:50.673Z,99546.48
2019-02-09T02:28:56.667Z,99535.54
2019-02-09T02:35:02.415Z,99531.67
2019-02-09T02:41:08.306Z,99537.76
2019-02-09T02:47:14.146Z,99515.47
2019-02-09T02:53:19.995Z,99498.11
2019-02-09T02:59:26.169Z,99481.03
2019-02-09T03:05:32.470Z,99498.47
2019-02-09T03:11:38.427Z,99505.02
2019-02-09T03:17:44.123Z,99513.22
2019-02-09T03:23:49.878Z,99520.63
2019-02-09T03:29:56.239Z,99528.05
2019-02-09T03:36:01.970Z,99534.94
2019-02-09T03:42:07.793Z,99548.83
2019-02-09T03:48:13.596Z,99550.13
2019-02-09T03:54:19.781Z,99554.42
2019-02-09T04:00:27.952Z,99555.30
2019-02-09T04:06:33.817Z,99560.05
2019-02-09T04:12:39.536Z,99568.72
2019-02-09T04:18:45.247Z,99564.71
2019-02-09T04:24:51.021Z,99583.10
2019-02-09T04:31:05.334Z,99578.30
2019-02-09T04:37:04.692Z,99585.71
2019-02-09T04:43:10.599Z,99591.36
2019-02-09T04:49:16.549Z,99587.02
2019-02-09T04:55:24.098Z,99598.84
2019-02-09T05:01:31.256Z,99626.04
2019-02-09T05:07:37.007Z,99621.43
2019-02-09T05:13:42.920Z,99622.42
2019-02-09T05:19:48.748Z,99634.38
2019-02-09T05:25:54.582Z,99636.03
2019-02-09T05:32:00.675Z,99628.98
2019-02-09T05:38:06.600Z,99643.41
2019-02-09T05:44:12.500Z,99650.44
2019-02-09T05:50:19.740Z,99650.92
2019-02-09T05:56:25.536Z,99667.25
2019-02-09T06:02:31.375Z,99672.13
2019-02-09T06:08:37.459Z,99693.60
2019-02-09T06:14:44.118Z,99716.23
2019-02-09T06:20:50.118Z,99712.63
2019-02-09T06:26:56.055Z,99728.70
2019-02-09T06:33:02.007Z,99726.02
2019-02-09T06:39:26.739Z,99728.64
2019-02-09T06:45:32.751Z,99732.59
2019-02-09T06:51:38.894Z,99738.42
2019-02-09T06:57:45.780Z,99745.17
2019-02-09T07:03:51.966Z,99734.92
2019-02-09T07:09:58.335Z,99763.02
2019-02-09T07:16:04.351Z,99794.09
2019-02-09T07:22:10.211Z,99824.67
2019-02-09T07:28:16.305Z,99831.28
2019-02-09T07:34:22.193Z,99823.55
2019-02-09T07:40:28.368Z,99829.78
2019-02-09T07:46:34.427Z,99845.19
2019-02-09T07:52:40.192Z,99853.95
2019-02-09T07:58:46.228Z,99850.84
2019-02-09T08:04:52.311Z,99867.95
2019-02-09T08:10:58.172Z,99878.89
2019-02-09T08:17:04.716Z,99890.20
2019-02-09T08:23:10.911Z,99903.32
2019-02-09T08:29:16.727Z,99906.73
2019-02-09T08:35:22.723Z,99908.42
2019-02-09T08:41:47.752Z,99903.97
2019-02-09T08:47:54.044Z,99886.38
2019-02-09T08:54:00.509Z,99908.09
2019-02-09T09:00:10.812Z,99905.33
2019-02-09T09:06:16.596Z,99910.33
2019-02-09T09:12:22.533Z,99906.75
2019-02-09T09:18:28.399Z,99910.58
2019-02-09T09:24:34.295Z,99914.80
2019-02-09T09:30:40.220Z,99943.81
2019-02-09T09:36:46.073Z,99930.45
2019-02-09T09:42:51.977Z,99936.05
2019-02-09T09:48:58.306Z,99945.12
2019-02-09T09:55:04.285Z,99929.64
2019-02-09T10:01:10.353Z,99950.25
2019-02-09T10:07:17.602Z,99947.09
2019-02-09T10:13:23.463Z,99960.54
2019-02-09T10:19:29.231Z,99953.80
2019-02-09T10:25:35.132Z,99931.17
2019-02-09T10:31:41.081Z,99958.41
2019-02-09T10:37:47.199Z,99962.35
2019-02-09T10:43:53.216Z,99989.84
2019-02-09T10:49:59.214Z,99990.03
2019-02-09T10:56:05.483Z,99978.96
2019-02-09T11:02:11.393Z,100005.74
2019-02-09T11:08:17.458Z,100003.50
2019-02-09T11:14:23.541Z,99992.37
2019-02-09T11:20:30.353Z,99997.93
2019-02-09T11:26:36.369Z,99987.63
2019-02-09T11:32:42.185Z,99988.38
2019-02-09T11:38:48.354Z,99971.80
2019-02-09T11:44:54.318Z,99971.26
2019-02-09T11:51:00.101Z,99963.41
2019-02-09T11:57:06.144Z,99960.69
2019-02-09T12:03:15.097Z,99974.64
2019-02-09T12:09:20.189Z,99975.70
2019-02-09T12:15:31.635Z,99994.42
2019-02-09T12:21:37.485Z,99989.50
2019-02-09T12:27:43.650Z,99978.23
2019-02-09T12:33:49.740Z,100003.27
2019-02-09T12:40:18.489Z,100013.16
2019-02-09T12:46:24.608Z,99997.17
2019-02-09T12:52:30.350Z,100013.09
2019-02-09T12:58:36.325Z,100014.41
2019-02-09T13:04:42.351Z,100006.37
2019-02-09T13:10:48.502Z,99989.78
2019-02-09T13:16:54.842Z,100000.16
2019-02-09T13:23:01.217Z,100017.59
2019-02-09T13:29:07.096Z,100019.62
2019-02-09T13:35:13.826Z,100003.22
2019-02-09T13:41:19.581Z,100013.50
2019-02-09T13:47:25.329Z,100006.19
2019-02-09T13:53:31.112Z,100011.19
2019-02-09T13:59:37.224Z,100015.12
2019-02-09T14:05:43.377Z,100024.73
2019-02-09T14:11:49.143Z,100053.39
2019-02-09T14:17:55.880Z,100067.23
2019-02-09T14:24:01.768Z,100057.49
2019-02-09T14:30:15.879Z,100123.75
2019-02-09T14:36:21.964Z,100132.73
2019-02-09T14:42:27.789Z,100115.20
2019-02-09T14:48:33.566Z,100110.51
2019-02-09T14:54:39.944Z,100116.73
2019-02-09T15:00:49.545Z,100129.63
2019-02-09T15:06:55.345Z,100135.42
2019-02-09T15:13:01.138Z,100128.07
2019-02-09T15:19:07.332Z,100129.47
2019-02-09T15:25:13.695Z,100120.27
2019-02-09T15:31:19.946Z,100127.74
2019-02-09T15:37:25.695Z,100143.06
2019-02-09T15:43:31.477Z,100138.22
2019-02-09T15:49:37.771Z,100135.96
2019-02-09T15:55:43.577Z,100135.83
2019-02-09T16:01:49.363Z,100137.41
2019-02-09T16:07:55.205Z,100146.57
2019-02-09T16:14:01.609Z,100148.73
2019-02-09T16:20:09.042Z,100146.06
2019-02-09T16:26:14.853Z,100167.56
2019-02-09T16:32:20.765Z,100160.13
2019-02-09T16:38:26.901Z,100157.99
2019-02-09T16:44:33.027Z,100161.90
2019-02-09T16:50:39.019Z,100163.66
2019-02-09T16:56:44.872Z,100181.12
2019-02-09T17:02:50.745Z,100185.02
2019-02-09T17:08:56.511Z,100191.55
2019-02-09T17:15:02.271Z,100220.56
2019-02-09T17:21:08.164Z,100214.53
2019-02-09T17:27:14.350Z,100228.25
2019-02-09T17:33:20.482Z,100235.83
2019-02-09T17:39:26.304Z,100238.52
2019-02-09T17:45:57.167Z,100235.09
2019-02-09T17:52:02.909Z,100247.80
2019-02-09T17:58:08.985Z,100258.38
2019-02-09T18:04:14.809Z,100261.88
2019-02-09T18:10:21.953Z,100257.47
2019-02-09T18:16:27.668Z,100261.39
2019-02-09T18:28:50.622Z,100270.51
2019-02-09T18:35:00.418Z,100277.88
2019-02-09T18:41:06.672Z,100266.98
2019-02-09T18:47:12.532Z,100273.59
2019-02-09T18:53:18.321Z,100275.34
2019-02-09T18:59:24.420Z,100288.48
2019-02-09T19:05:30.446Z,100283.22
2019-02-09T19:11:36.841Z,100289.77
2019-02-09T19:17:42.822Z,100296.34
2019-02-09T19:23:48.661Z,100320.41
2019-02-09T19:29:54.534Z,100319.98
2019-02-09T19:36:00.529Z,100314.34
2019-02-09T19:42:06.788Z,100316.95
2019-02-09T19:48:14.430Z,100310.86
2019-02-09T19:54:20.654Z,100315.69
2019-02-09T20:00:29.833Z,100313.48
2019-02-09T20:06:35.694Z,100309.10
2019-02-09T20:12:42.634Z,100308.23
2019-02-09T20:18:48.504Z,100303.38
2019-02-09T20:24:54.610Z,100296.81
2019-02-09T20:31:00.702Z,100294.58
2019-02-09T20:37:07.056Z,100297.63
2019-02-09T20:43:15.643Z,100300.28
2019-02-09T20:49:21.621Z,100292.84
2019-02-09T20:55:27.952Z,100297.67
2019-02-09T21:01:33.704Z,100286.27
2019-02-09T21:07:39.875Z,100275.70
2019-02-09T21:13:46.884Z,100289.23
2019-02-09T21:19:53.258Z,100280.48
2019-02-09T21:25:59.950Z,100277.05
2019-02-09T21:32:06.382Z,100284.03
2019-02-09T21:38:12.705Z,100277.91
2019-02-09T21:44:18.500Z,100286.27
2019-02-09T21:50:31.206Z,100286.72
2019-02-09T21:56:37.249Z,100277.49
2019-02-09T22:02:43.330Z,100264.77
2019-02-09T22:08:49.176Z,100263.43
2019-02-09T22:14:55.242Z,100256.80
2019-02-09T22:21:01.307Z,100260.22
2019-02-09T22:27:07.063Z,100245.34
2019-02-09T22:33:12.886Z,100246.66
2019-02-09T22:39:18.928Z,100243.58
2019-02-09T22:45:26.091Z,100222.58
2019-02-09T22:51:32.083Z,100222.58
2019-02-09T22:57:38.138Z,100222.13
2019-02-09T23:04:24.467Z,100211.20
2019-02-09T23:10:30.513Z,100208.16
2019-02-09T23:23:00.666Z,100188.07
2019-02-09T23:29:17.382Z,100168.36
2019-02-09T23:35:29.562Z,100167.05
2019-02-09T23:41:47.968Z,100154.77
2019-02-09T23:48:03.101Z,100140.72
2019-02-09T23:54:11.559Z,100124.08
